sensor_id;sensor_type;location;lat;lon;timestamp;pressure;altitude;pressure_sealevel;temperature;humidity
21877;BME280;11103;43.788;23.710;2022-10-17T00:01:57;147110.44;;;7.33;100.00
21877;BME280;11103;43.788;23.710;2022-10-17T00:04:23;145828.16;;;7.42;100.00
21877;BME280;11103;43.788;23.710;2022-10-17T00:06:48;140453.06;;;7.32;100.00
21877;BME280;11103;43.788;23.710;2022-10-17T00:09:13;123868.38;;;7.35;100.00
21877;BME280;11103;43.788;23.710;2022-10-17T00:11:39;129985.44;;;7.60;100.00
21877;BME280;11103;43.788;23.710;2022-10-17T00:14:04;136299.03;;;7.71;100.00
21877;BME280;11103;43.788;23.710;2022-10-17T00:16:34;142159.59;;;7.69;100.00
21877;BME280;11103;43.788;23.710;2022-10-17T00:19:05;143725.88;;;7.62;100.00
21877;BME280;11103;43.788;23.710;2022-10-17T00:21:31;141833.94;;;7.34;100.00
21877;BME280;11103;43.788;23.710;2022-10-17T00:23:58;146312.75;;;7.56;100.00
21877;BME280;11103;43.788;23.710;2022-10-17T00:26:24;141198.47;;;7.28;100.00
21877;BME280;11103;43.788;23.710;2022-10-17T00:28:51;137768.81;;;7.46;100.00
21877;BME280;11103;43.788;23.710;2022-10-17T00:31:18;138426.84;;;7.29;100.00
21877;BME280;11103;43.788;23.710;2022-10-17T00:33:44;138613.59;;;7.45;100.00
21877;BME280;11103;43.788;23.710;2022-10-17T00:36:15;130869.41;;;7.36;100.00
21877;BME280;11103;43.788;23.710;2022-10-17T00:38:44;126341.78;;;7.23;100.00
21877;BME280;11103;43.788;23.710;2022-10-17T00:41:12;124938.63;;;7.37;100.00
21877;BME280;11103;43.788;23.710;2022-10-17T00:46:42;120182.75;;;7.46;100.00
21877;BME280;11103;43.788;23.710;2022-10-17T00:49:10;109324.38;;;7.47;100.00
21877;BME280;11103;43.788;23.710;2022-10-17T00:55:00;101016.03;;;7.21;100.00
21877;BME280;11103;43.788;23.710;2022-10-17T00:57:28;98410.03;;;7.41;100.00
21877;BME280;11103;43.788;23.710;2022-10-17T01:00:07;103372.44;;;7.47;100.00
21877;BME280;11103;43.788;23.710;2022-10-17T01:02:34;103646.44;;;7.15;100.00
21877;BME280;11103;43.788;23.710;2022-10-17T01:04:59;110051.19;;;7.18;100.00
21877;BME280;11103;43.788;23.710;2022-10-17T01:07:27;109728.13;;;7.39;100.00
21877;BME280;11103;43.788;23.710;2022-10-17T01:09:53;110285.97;;;7.30;100.00
21877;BME280;11103;43.788;23.710;2022-10-17T01:28:38;85848.91;;;7.08;100.00
21877;BME280;11103;43.788;23.710;2022-10-17T01:31:12;89461.28;;;7.06;100.00
21877;BME280;11103;43.788;23.710;2022-10-17T01:37:05;92787.34;;;7.29;100.00
21877;BME280;11103;43.788;23.710;2022-10-17T01:39:45;93768.84;;;7.25;100.00
21877;BME280;11103;43.788;23.710;2022-10-17T01:42:22;99703.09;;;7.25;100.00
21877;BME280;11103;43.788;23.710;2022-10-17T01:45:00;103315.34;;;7.14;100.00
21877;BME280;11103;43.788;23.710;2022-10-17T01:47:29;111985.84;;;7.13;100.00
21877;BME280;11103;43.788;23.710;2022-10-17T01:49:59;116520.38;;;7.16;100.00
21877;BME280;11103;43.788;23.710;2022-10-17T01:52:42;114983.16;;;7.15;100.00
21877;BME280;11103;43.788;23.710;2022-10-17T01:55:14;116794.91;;;6.89;100.00
21877;BME280;11103;43.788;23.710;2022-10-17T01:57:48;125998.84;;;7.04;100.00
21877;BME280;11103;43.788;23.710;2022-10-17T02:00:18;126715.16;;;7.02;100.00
21877;BME280;11103;43.788;23.710;2022-10-17T02:02:47;129008.25;;;6.78;100.00
21877;BME280;11103;43.788;23.710;2022-10-17T02:05:16;131994.25;;;6.76;100.00
21877;BME280;11103;43.788;23.710;2022-10-17T02:07:43;127109.72;;;6.73;100.00
21877;BME280;11103;43.788;23.710;2022-10-17T02:10:20;126320.53;;;6.86;100.00
21877;BME280;11103;43.788;23.710;2022-10-17T02:20:59;109778.69;;;6.61;100.00
21877;BME280;11103;43.788;23.710;2022-10-17T02:26:19;93362.00;;;6.76;100.00
21877;BME280;11103;43.788;23.710;2022-10-17T02:32:04;70097.63;;;6.92;100.00
21877;BME280;11103;43.788;23.710;2022-10-17T02:34:37;72022.09;;;6.62;100.00
21877;BME280;11103;43.788;23.710;2022-10-17T02:37:05;71077.28;;;6.91;100.00
21877;BME280;11103;43.788;23.710;2022-10-17T02:39:33;71036.47;;;6.58;100.00
21877;BME280;11103;43.788;23.710;2022-10-17T02:42:02;74987.38;;;6.79;100.00
21877;BME280;11103;43.788;23.710;2022-10-17T02:44:31;78928.38;;;6.87;100.00
21877;BME280;11103;43.788;23.710;2022-10-17T02:47:05;83161.28;;;6.66;100.00
21877;BME280;11103;43.788;23.710;2022-10-17T02:49:35;86473.03;;;6.86;100.00
21877;BME280;11103;43.788;23.710;2022-10-17T02:52:10;89042.22;;;6.47;100.00
21877;BME280;11103;43.788;23.710;2022-10-17T02:58:07;105765.53;;;6.77;100.00
21877;BME280;11103;43.788;23.710;2022-10-17T03:00:37;115959.47;;;6.66;100.00
21877;BME280;11103;43.788;23.710;2022-10-17T03:05:45;116461.44;;;6.47;100.00
21877;BME280;11103;43.788;23.710;2022-10-17T03:08:10;121132.50;;;6.62;100.00
21877;BME280;11103;43.788;23.710;2022-10-17T03:10:36;121545.19;;;6.50;100.00
21877;BME280;11103;43.788;23.710;2022-10-17T03:13:01;129386.25;;;6.56;100.00
21877;BME280;11103;43.788;23.710;2022-10-17T03:15:26;127327.97;;;6.53;100.00
21877;BME280;11103;43.788;23.710;2022-10-17T03:17:52;123467.63;;;6.56;100.00
21877;BME280;11103;43.788;23.710;2022-10-17T03:20:17;121609.59;;;6.56;100.00
21877;BME280;11103;43.788;23.710;2022-10-17T03:22:43;123440.22;;;6.48;100.00
21877;BME280;11103;43.788;23.710;2022-10-17T03:25:09;126109.38;;;6.45;100.00
21877;BME280;11103;43.788;23.710;2022-10-17T03:27:34;125603.91;;;6.47;100.00
21877;BME280;11103;43.788;23.710;2022-10-17T03:30:00;125681.09;;;6.52;100.00
21877;BME280;11103;43.788;23.710;2022-10-17T03:32:25;126573.66;;;6.45;100.00
21877;BME280;11103;43.788;23.710;2022-10-17T03:34:50;122024.03;;;6.53;100.00
21877;BME280;11103;43.788;23.710;2022-10-17T03:37:16;123481.47;;;6.34;100.00
21877;BME280;11103;43.788;23.710;2022-10-17T03:39:59;121392.91;;;6.28;100.00
21877;BME280;11103;43.788;23.710;2022-10-17T03:42:24;122967.72;;;6.41;100.00
21877;BME280;11103;43.788;23.710;2022-10-17T03:44:50;123677.31;;;6.34;100.00
21877;BME280;11103;43.788;23.710;2022-10-17T03:47:15;117851.91;;;6.29;100.00
21877;BME280;11103;43.788;23.710;2022-10-17T03:49:40;119957.69;;;6.30;100.00
21877;BME280;11103;43.788;23.710;2022-10-17T03:52:13;121316.94;;;6.35;100.00
21877;BME280;11103;43.788;23.710;2022-10-17T03:54:38;121307.47;;;6.28;100.00
21877;BME280;11103;43.788;23.710;2022-10-17T03:59:57;114893.84;;;6.29;100.00
21877;BME280;11103;43.788;23.710;2022-10-17T04:02:22;112750.53;;;6.27;100.00
21877;BME280;11103;43.788;23.710;2022-10-17T04:04:48;111886.72;;;6.13;100.00
21877;BME280;11103;43.788;23.710;2022-10-17T04:07:14;113432.81;;;6.10;100.00
21877;BME280;11103;43.788;23.710;2022-10-17T04:09:40;113495.94;;;6.04;100.00
21877;BME280;11103;43.788;23.710;2022-10-17T04:12:06;113544.03;;;6.18;100.00
21877;BME280;11103;43.788;23.710;2022-10-17T04:14:32;113279.53;;;5.94;100.00
21877;BME280;11103;43.788;23.710;2022-10-17T04:16:57;113317.22;;;6.09;100.00
21877;BME280;11103;43.788;23.710;2022-10-17T04:22:44;116475.69;;;5.79;100.00
21877;BME280;11103;43.788;23.710;2022-10-17T04:25:09;121876.31;;;5.68;100.00
21877;BME280;11103;43.788;23.710;2022-10-17T04:27:35;123180.91;;;5.75;100.00
21877;BME280;11103;43.788;23.710;2022-10-17T04:30:00;123261.06;;;5.92;100.00
21877;BME280;11103;43.788;23.710;2022-10-17T04:32:26;124913.88;;;5.73;100.00
21877;BME280;11103;43.788;23.710;2022-10-17T04:34:51;126810.53;;;5.91;100.00
21877;BME280;11103;43.788;23.710;2022-10-17T04:37:16;122924.84;;;5.89;100.00
21877;BME280;11103;43.788;23.710;2022-10-17T04:39:42;121625.06;;;5.76;100.00
21877;BME280;11103;43.788;23.710;2022-10-17T04:42:07;121283.75;;;5.84;100.00
21877;BME280;11103;43.788;23.710;2022-10-17T04:44:33;123994.97;;;5.93;100.00
21877;BME280;11103;43.788;23.710;2022-10-17T04:46:59;119751.78;;;5.92;100.00
21877;BME280;11103;43.788;23.710;2022-10-17T04:49:25;115664.16;;;6.00;100.00
21877;BME280;11103;43.788;23.710;2022-10-17T04:51:50;111302.38;;;5.82;100.00
21877;BME280;11103;43.788;23.710;2022-10-17T04:54:16;108974.72;;;6.01;100.00
21877;BME280;11103;43.788;23.710;2022-10-17T04:56:41;106720.44;;;6.08;100.00
21877;BME280;11103;43.788;23.710;2022-10-17T04:59:06;101815.22;;;6.12;100.00
21877;BME280;11103;43.788;23.710;2022-10-17T05:01:32;100757.13;;;5.71;100.00
21877;BME280;11103;43.788;23.710;2022-10-17T05:03:57;105285.53;;;5.88;100.00
21877;BME280;11103;43.788;23.710;2022-10-17T05:06:24;110395.75;;;6.13;100.00
21877;BME280;11103;43.788;23.710;2022-10-17T05:08:50;115456.16;;;5.60;100.00
21877;BME280;11103;43.788;23.710;2022-10-17T05:13:54;115791.88;;;6.14;100.00
21877;BME280;11103;43.788;23.710;2022-10-17T05:16:20;119485.06;;;6.33;100.00
21877;BME280;11103;43.788;23.710;2022-10-17T05:18:50;123102.63;;;6.44;100.00
21877;BME280;11103;43.788;23.710;2022-10-17T05:21:16;140364.28;;;6.84;100.00
21877;BME280;11103;43.788;23.710;2022-10-17T05:23:42;148274.59;;;7.54;100.00
21877;BME280;11103;43.788;23.710;2022-10-17T05:26:07;148389.47;;;7.99;100.00
21877;BME280;11103;43.788;23.710;2022-10-17T05:28:33;148514.72;;;8.49;100.00
21877;BME280;11103;43.788;23.710;2022-10-17T05:31:03;148651.44;;;9.03;100.00
21877;BME280;11103;43.788;23.710;2022-10-17T05:33:29;148765.22;;;9.47;100.00
21877;BME280;11103;43.788;23.710;2022-10-17T05:35:55;148752.44;;;9.42;100.00
21877;BME280;11103;43.788;23.710;2022-10-17T05:38:20;148849.63;;;9.81;100.00
21877;BME280;11103;43.788;23.710;2022-10-17T05:40:46;148946.91;;;10.19;100.00
21877;BME280;11103;43.788;23.710;2022-10-17T05:43:11;148926.34;;;10.11;100.00
21877;BME280;11103;43.788;23.710;2022-10-17T05:45:37;149030.03;;;10.52;100.00
21877;BME280;11103;43.788;23.710;2022-10-17T05:48:02;149123.50;;;10.89;100.00
21877;BME280;11103;43.788;23.710;2022-10-17T05:50:28;149174.69;;;11.09;100.00
21877;BME280;11103;43.788;23.710;2022-10-17T05:52:54;149179.84;;;11.11;100.00
21877;BME280;11103;43.788;23.710;2022-10-17T05:55:19;149250.28;;;11.39;100.00
21877;BME280;11103;43.788;23.710;2022-10-17T05:57:45;149214.41;;;11.24;100.00
21877;BME280;11103;43.788;23.710;2022-10-17T06:00:11;149223.34;;;11.28;100.00
21877;BME280;11103;43.788;23.710;2022-10-17T06:02:36;149223.34;;;11.28;100.00
21877;BME280;11103;43.788;23.710;2022-10-17T06:05:02;149163.19;;;11.04;100.00
21877;BME280;11103;43.788;23.710;2022-10-17T06:07:27;149062.06;;;10.64;100.00
21877;BME280;11103;43.788;23.710;2022-10-17T06:09:52;149074.84;;;10.69;100.00
21877;BME280;11103;43.788;23.710;2022-10-17T06:12:18;149067.19;;;10.66;100.00
21877;BME280;11103;43.788;23.710;2022-10-17T06:14:43;149047.97;;;10.59;100.00
21877;BME280;11103;43.788;23.710;2022-10-17T06:17:09;149035.19;;;10.54;100.00
21877;BME280;11103;43.788;23.710;2022-10-17T06:19:34;148934.06;;;10.14;100.00
21877;BME280;11103;43.788;23.710;2022-10-17T06:22:00;148985.28;;;10.34;100.00
21877;BME280;11103;43.788;23.710;2022-10-17T06:24:25;148992.97;;;10.37;100.00
21877;BME280;11103;43.788;23.710;2022-10-17T06:26:51;148836.81;;;9.76;100.00
21877;BME280;11103;43.788;23.710;2022-10-17T06:29:16;148986.56;;;10.35;100.00
21877;BME280;11103;43.788;23.710;2022-10-17T06:31:42;148998.06;;;10.39;100.00
21877;BME280;11103;43.788;23.710;2022-10-17T06:34:07;149037.72;;;10.55;100.00
21877;BME280;11103;43.788;23.710;2022-10-17T06:36:33;148990.38;;;10.36;100.00
21877;BME280;11103;43.788;23.710;2022-10-17T06:38:58;149055.66;;;10.62;100.00
21877;BME280;11103;43.788;23.710;2022-10-17T06:41:24;149044.13;;;10.57;100.00
21877;BME280;11103;43.788;23.710;2022-10-17T06:43:49;149054.38;;;10.61;100.00
21877;BME280;11103;43.788;23.710;2022-10-17T06:46:16;149082.53;;;10.72;100.00
21877;BME280;11103;43.788;23.710;2022-10-17T06:48:42;149103.03;;;10.81;100.00
21877;BME280;11103;43.788;23.710;2022-10-17T06:51:08;149035.19;;;10.54;100.00
21877;BME280;11103;43.788;23.710;2022-10-17T06:53:38;149105.59;;;10.82;100.00
21877;BME280;11103;43.788;23.710;2022-10-17T06:56:05;149167.06;;;11.06;100.00
21877;BME280;11103;43.788;23.710;2022-10-17T06:58:33;149133.72;;;10.93;100.00
21877;BME280;11103;43.788;23.710;2022-10-17T07:03:24;149210.56;;;11.23;100.00
21877;BME280;11103;43.788;23.710;2022-10-17T07:05:51;149150.38;;;10.99;100.00
21877;BME280;11103;43.788;23.710;2022-10-17T07:08:16;149177.28;;;11.10;100.00
21877;BME280;11103;43.788;23.710;2022-10-17T07:10:42;149240.03;;;11.34;100.00
21877;BME280;11103;43.788;23.710;2022-10-17T07:13:07;149266.91;;;11.45;100.00
21877;BME280;11103;43.788;23.710;2022-10-17T07:15:33;149192.66;;;11.16;100.00
21877;BME280;11103;43.788;23.710;2022-10-17T07:17:58;149240.03;;;11.34;100.00
21877;BME280;11103;43.788;23.710;2022-10-17T07:20:24;149224.63;;;11.28;100.00
21877;BME280;11103;43.788;23.710;2022-10-17T07:22:49;149228.50;;;11.30;100.00
21877;BME280;11103;43.788;23.710;2022-10-17T07:25:14;149359.22;;;11.81;100.00
21877;BME280;11103;43.788;23.710;2022-10-17T07:27:40;149255.41;;;11.41;100.00
21877;BME280;11103;43.788;23.710;2022-10-17T07:30:06;149322.00;;;11.67;100.00
21877;BME280;11103;43.788;23.710;2022-10-17T07:32:32;149375.84;;;11.88;100.00
21877;BME280;11103;43.788;23.710;2022-10-17T07:34:57;149315.59;;;11.64;100.00
21877;BME280;11103;43.788;23.710;2022-10-17T07:37:24;149336.13;;;11.72;100.00
21877;BME280;11103;43.788;23.710;2022-10-17T07:39:49;149451.44;;;12.18;100.00
21877;BME280;11103;43.788;23.710;2022-10-17T07:42:14;149395.09;;;11.96;100.00
21877;BME280;11103;43.788;23.710;2022-10-17T07:44:40;149382.25;;;11.90;100.00
21877;BME280;11103;43.788;23.710;2022-10-17T07:47:05;149468.13;;;12.24;100.00
21877;BME280;11103;43.788;23.710;2022-10-17T07:49:31;149441.22;;;12.14;100.00
21877;BME280;11103;43.788;23.710;2022-10-17T07:51:56;149495.03;;;12.35;100.00
21877;BME280;11103;43.788;23.710;2022-10-17T07:54:22;149530.94;;;12.49;100.00
21877;BME280;11103;43.788;23.710;2022-10-17T07:56:47;149556.56;;;12.59;100.00
21877;BME280;11103;43.788;23.710;2022-10-17T07:59:18;149523.25;;;12.46;100.00
21877;BME280;11103;43.788;23.710;2022-10-17T08:01:43;149582.22;;;12.69;100.00
21877;BME280;11103;43.788;23.710;2022-10-17T08:04:10;149512.97;;;12.42;100.00
21877;BME280;11103;43.788;23.710;2022-10-17T08:06:35;149607.88;;;12.79;100.00
21877;BME280;11103;43.788;23.710;2022-10-17T08:09:01;149646.34;;;12.94;100.00
21877;BME280;11103;43.788;23.710;2022-10-17T08:11:26;149693.84;;;13.13;100.00
21877;BME280;11103;43.788;23.710;2022-10-17T08:13:51;149724.66;;;13.25;100.00
21877;BME280;11103;43.788;23.710;2022-10-17T08:16:18;149738.75;;;13.31;100.00
21877;BME280;11103;43.788;23.710;2022-10-17T08:18:43;149783.63;;;13.48;100.00
21877;BME280;11103;43.788;23.710;2022-10-17T08:21:10;149802.94;;;13.56;100.00
21877;BME280;11103;43.788;23.710;2022-10-17T08:23:37;149788.81;;;13.50;100.00
21877;BME280;11103;43.788;23.710;2022-10-17T08:26:05;149792.63;;;13.52;100.00
21877;BME280;11103;43.788;23.710;2022-10-17T08:28:34;149802.94;;;13.56;100.00
21877;BME280;11103;43.788;23.710;2022-10-17T08:31:05;149868.34;;;13.82;100.00
21877;BME280;11103;43.788;23.710;2022-10-17T08:33:30;149815.75;;;13.61;100.00
21877;BME280;11103;43.788;23.710;2022-10-17T08:36:01;149800.34;;;13.55;100.00
21877;BME280;11103;43.788;23.710;2022-10-17T08:38:28;149873.47;;;13.84;100.00
21877;BME280;11103;43.788;23.710;2022-10-17T08:40:56;149950.50;;;14.14;100.00
21877;BME280;11103;43.788;23.710;2022-10-17T08:43:34;149973.63;;;14.23;100.00
21877;BME280;11103;43.788;23.710;2022-10-17T08:46:05;149998.03;;;14.32;100.00
21877;BME280;11103;43.788;23.710;2022-10-17T08:48:36;149955.63;;;14.16;98.96
21877;BME280;11103;43.788;23.710;2022-10-17T08:51:23;150034.00;;;14.47;98.57
21877;BME280;11103;43.788;23.710;2022-10-17T08:53:56;150035.31;;;14.47;100.00
21877;BME280;11103;43.788;23.710;2022-10-17T08:56:30;150010.91;;;14.38;100.00
21877;BME280;11103;43.788;23.710;2022-10-17T08:58:58;150090.53;;;14.69;99.54
21877;BME280;11103;43.788;23.710;2022-10-17T09:01:28;150118.78;;;14.80;100.00
21877;BME280;11103;43.788;23.710;2022-10-17T09:04:14;150157.31;;;14.95;100.00
21877;BME280;11103;43.788;23.710;2022-10-17T09:06:54;150125.19;;;14.82;100.00
21877;BME280;11103;43.788;23.710;2022-10-17T09:12:16;150197.16;;;15.11;100.00
21877;BME280;11103;43.788;23.710;2022-10-17T09:15:15;150203.59;;;15.13;100.00
21877;BME280;11103;43.788;23.710;2022-10-17T09:17:54;150270.38;;;15.39;100.00
21877;BME280;11103;43.788;23.710;2022-10-17T09:20:24;150302.56;;;15.52;100.00
21877;BME280;11103;43.788;23.710;2022-10-17T09:25:19;150271.69;;;15.40;96.94
21877;BME280;11103;43.788;23.710;2022-10-17T09:27:48;150275.50;;;15.41;94.81
21877;BME280;11103;43.788;23.710;2022-10-17T09:30:31;150311.56;;;15.56;92.76
21877;BME280;11103;43.788;23.710;2022-10-17T09:32:58;150306.44;;;15.54;94.46
21877;BME280;11103;43.788;23.710;2022-10-17T09:35:24;150280.69;;;15.43;90.95
21877;BME280;11103;43.788;23.710;2022-10-17T09:37:52;150366.84;;;15.77;88.86
21877;BME280;11103;43.788;23.710;2022-10-17T09:40:24;150357.81;;;15.74;86.31
21877;BME280;11103;43.788;23.710;2022-10-17T09:42:51;150355.28;;;15.73;87.36
21877;BME280;11103;43.788;23.710;2022-10-17T09:45:19;150431.13;;;16.02;90.84
21877;BME280;11103;43.788;23.710;2022-10-17T09:48:05;150459.44;;;16.14;87.76
21877;BME280;11103;43.788;23.710;2022-10-17T09:50:34;150486.44;;;16.24;86.97
21877;BME280;11103;43.788;23.710;2022-10-17T09:53:22;150501.88;;;16.30;82.09
21877;BME280;11103;43.788;23.710;2022-10-17T09:55:55;150527.59;;;16.40;80.87
21877;BME280;11103;43.788;23.710;2022-10-17T09:58:22;150558.44;;;16.52;79.48
21877;BME280;11103;43.788;23.710;2022-10-17T10:00:48;150603.53;;;16.70;78.87
21877;BME280;11103;43.788;23.710;2022-10-17T10:03:15;150640.84;;;16.85;79.97
21877;BME280;11103;43.788;23.710;2022-10-17T10:05:42;150667.88;;;16.95;73.65
21877;BME280;11103;43.788;23.710;2022-10-17T10:08:22;150680.72;;;17.00;69.86
21877;BME280;11103;43.788;23.710;2022-10-17T10:10:57;150684.56;;;17.02;71.56
21877;BME280;11103;43.788;23.710;2022-10-17T10:13:25;150728.34;;;17.19;69.47
21877;BME280;11103;43.788;23.710;2022-10-17T10:15:51;150716.78;;;17.14;73.28
21877;BME280;11103;43.788;23.710;2022-10-17T10:21:03;150774.66;;;17.37;67.76
21877;BME280;11103;43.788;23.710;2022-10-17T10:23:29;150778.56;;;17.39;65.86
21877;BME280;11103;43.788;23.710;2022-10-17T10:25:57;150779.84;;;17.39;63.92
21877;BME280;11103;43.788;23.710;2022-10-17T10:28:34;150790.13;;;17.43;68.28
21877;BME280;11103;43.788;23.710;2022-10-17T10:31:05;150805.59;;;17.49;68.57
21877;BME280;11103;43.788;23.710;2022-10-17T10:33:34;150823.63;;;17.56;67.66
21877;BME280;11103;43.788;23.710;2022-10-17T10:36:03;150849.44;;;17.66;73.72
21877;BME280;11103;43.788;23.710;2022-10-17T10:38:31;150803.00;;;17.48;64.08
21877;BME280;11103;43.788;23.710;2022-10-17T10:41:15;150808.13;;;17.50;62.91
21877;BME280;11103;43.788;23.710;2022-10-17T10:43:48;150897.06;;;17.85;64.05
21877;BME280;11103;43.788;23.710;2022-10-17T10:46:23;150867.44;;;17.73;61.98
21877;BME280;11103;43.788;23.710;2022-10-17T10:48:54;150898.31;;;17.85;66.55
21877;BME280;11103;43.788;23.710;2022-10-17T10:54:04;150840.41;;;17.63;64.10
21877;BME280;11103;43.788;23.710;2022-10-17T10:56:38;150929.25;;;17.98;63.67
21877;BME280;11103;43.788;23.710;2022-10-17T11:01:47;150949.84;;;18.06;62.85
21877;BME280;11103;43.788;23.710;2022-10-17T11:06:44;150939.56;;;18.02;59.12
21877;BME280;11103;43.788;23.710;2022-10-17T11:12:06;150936.97;;;18.01;61.16
21877;BME280;11103;43.788;23.710;2022-10-17T11:14:59;150991.06;;;18.22;61.53
21877;BME280;11103;43.788;23.710;2022-10-17T11:23:19;150926.66;;;17.97;55.82
21877;BME280;11103;43.788;23.710;2022-10-17T11:25:47;150943.41;;;18.03;56.71
21877;BME280;11103;43.788;23.710;2022-10-17T11:28:16;150978.19;;;18.17;55.67
21877;BME280;11103;43.788;23.710;2022-10-17T11:30:50;151002.63;;;18.26;54.75
21877;BME280;11103;43.788;23.710;2022-10-17T11:33:22;151052.91;;;18.46;58.11
21877;BME280;11103;43.788;23.710;2022-10-17T11:35:51;151045.16;;;18.43;55.94
21877;BME280;11103;43.788;23.710;2022-10-17T11:38:24;151001.38;;;18.26;61.74
21877;BME280;11103;43.788;23.710;2022-10-17T11:40:52;150983.31;;;18.19;62.08
21877;BME280;11103;43.788;23.710;2022-10-17T11:43:26;151098.06;;;18.64;57.36
21877;BME280;11103;43.788;23.710;2022-10-17T11:46:01;151112.25;;;18.69;56.79
21877;BME280;11103;43.788;23.710;2022-10-17T11:48:33;151040.00;;;18.41;55.24
21877;BME280;11103;43.788;23.710;2022-10-17T11:51:07;151078.75;;;18.56;54.25
21877;BME280;11103;43.788;23.710;2022-10-17T11:56:30;151050.34;;;18.45;59.94
21877;BME280;11103;43.788;23.710;2022-10-17T12:02:02;151114.78;;;18.70;54.26
21877;BME280;11103;43.788;23.710;2022-10-17T12:09:45;151131.56;;;18.77;54.53
21877;BME280;11103;43.788;23.710;2022-10-17T12:12:26;151159.91;;;18.88;55.08
21877;BME280;11103;43.788;23.710;2022-10-17T12:14:52;151156.03;;;18.86;58.78
21877;BME280;11103;43.788;23.710;2022-10-17T12:17:22;151149.56;;;18.84;53.79
21877;BME280;11103;43.788;23.710;2022-10-17T12:19:49;151052.91;;;18.46;55.48
21877;BME280;11103;43.788;23.710;2022-10-17T12:22:23;151118.69;;;18.72;54.20
21877;BME280;11103;43.788;23.710;2022-10-17T12:30:22;151122.53;;;18.73;59.30
21877;BME280;11103;43.788;23.710;2022-10-17T12:33:10;151156.03;;;18.86;56.03
21877;BME280;11103;43.788;23.710;2022-10-17T12:35:43;151107.03;;;18.67;56.52
21877;BME280;11103;43.788;23.710;2022-10-17T12:38:18;151163.75;;;18.89;54.04
21877;BME280;11103;43.788;23.710;2022-10-17T12:51:15;151092.88;;;18.62;51.76
21877;BME280;11103;43.788;23.710;2022-10-17T12:56:45;151125.13;;;18.74;55.53
21877;BME280;11103;43.788;23.710;2022-10-17T12:59:15;151148.28;;;18.83;53.84
21877;BME280;11103;43.788;23.710;2022-10-17T13:01:46;151145.72;;;18.82;53.29
21877;BME280;11103;43.788;23.710;2022-10-17T13:04:13;151147.03;;;18.83;57.18
21877;BME280;11103;43.788;23.710;2022-10-17T13:06:45;151161.22;;;18.88;55.97
21877;BME280;11103;43.788;23.710;2022-10-17T13:09:28;151157.31;;;18.87;53.74
21877;BME280;11103;43.788;23.710;2022-10-17T13:11:56;151080.00;;;18.57;55.06
21877;BME280;11103;43.788;23.710;2022-10-17T13:14:24;151165.06;;;18.90;52.45
21877;BME280;11103;43.788;23.710;2022-10-17T13:16:52;151185.69;;;18.98;52.05
21877;BME280;11103;43.788;23.710;2022-10-17T13:19:20;151180.53;;;18.96;53.50
21877;BME280;11103;43.788;23.710;2022-10-17T13:21:55;151168.94;;;18.91;52.09
21877;BME280;11103;43.788;23.710;2022-10-17T13:24:32;151175.41;;;18.94;51.72
21877;BME280;11103;43.788;23.710;2022-10-17T13:26:58;151143.13;;;18.81;52.90
21877;BME280;11103;43.788;23.710;2022-10-17T13:29:25;151134.16;;;18.78;54.71
21877;BME280;11103;43.788;23.710;2022-10-17T13:31:55;151172.78;;;18.93;58.26
21877;BME280;11103;43.788;23.710;2022-10-17T13:34:24;151147.03;;;18.83;51.82
21877;BME280;11103;43.788;23.710;2022-10-17T13:36:53;151176.66;;;18.94;55.26
21877;BME280;11103;43.788;23.710;2022-10-17T13:39:24;151230.81;;;19.16;58.14
21877;BME280;11103;43.788;23.710;2022-10-17T13:41:52;151228.22;;;19.15;52.99
21877;BME280;11103;43.788;23.710;2022-10-17T13:44:20;151228.22;;;19.15;51.82
21877;BME280;11103;43.788;23.710;2022-10-17T13:46:48;151188.28;;;18.99;50.55
21877;BME280;11103;43.788;23.710;2022-10-17T13:51:56;151217.88;;;19.11;55.18
21877;BME280;11103;43.788;23.710;2022-10-17T13:56:56;151235.97;;;19.18;51.85
21877;BME280;11103;43.788;23.710;2022-10-17T13:59:38;151171.50;;;18.92;51.68
21877;BME280;11103;43.788;23.710;2022-10-17T14:02:05;151232.06;;;19.16;57.79
21877;BME280;11103;43.788;23.710;2022-10-17T14:04:37;151152.19;;;18.85;62.24
21877;BME280;11103;43.788;23.710;2022-10-17T14:07:03;151168.94;;;18.91;59.20
21877;BME280;11103;43.788;23.710;2022-10-17T14:09:30;151197.25;;;19.02;62.47
21877;BME280;11103;43.788;23.710;2022-10-17T14:14:30;151127.66;;;18.75;66.67
21877;BME280;11103;43.788;23.710;2022-10-17T14:16:56;151118.69;;;18.72;62.99
21877;BME280;11103;43.788;23.710;2022-10-17T14:19:25;151172.78;;;18.93;69.37
21877;BME280;11103;43.788;23.710;2022-10-17T14:21:58;151150.88;;;18.84;64.68
21877;BME280;11103;43.788;23.710;2022-10-17T14:24:38;151112.25;;;18.69;68.55
21877;BME280;11103;43.788;23.710;2022-10-17T14:29:51;151034.88;;;18.39;70.19
21877;BME280;11103;43.788;23.710;2022-10-17T14:32:18;150994.94;;;18.23;75.21
21877;BME280;11103;43.788;23.710;2022-10-17T14:34:44;151011.66;;;18.30;69.63
21877;BME280;11103;43.788;23.710;2022-10-17T14:37:41;150955.00;;;18.08;72.49
21877;BME280;11103;43.788;23.710;2022-10-17T14:40:16;150891.88;;;17.83;71.55
21877;BME280;11103;43.788;23.710;2022-10-17T14:42:42;150813.31;;;17.52;75.78
21877;BME280;11103;43.788;23.710;2022-10-17T14:45:22;150788.81;;;17.43;79.23
21877;BME280;11103;43.788;23.710;2022-10-17T14:47:52;150687.16;;;17.03;80.11
21877;BME280;11103;43.788;23.710;2022-10-17T14:50:24;150646.00;;;16.87;84.83